createdAt,value
2023-01-09T00:09:13.771Z,44.30
2023-01-09T00:31:01.647Z,46.20
2023-01-09T00:52:49.250Z,48.80
2023-01-09T01:14:35.742Z,54.30
2023-01-09T01:36:21.408Z,54.90
2023-01-09T01:58:10.885Z,55.30
2023-01-09T02:20:25.439Z,51.80
2023-01-09T02:42:16.029Z,57.10
2023-01-09T03:04:09.396Z,61.60
2023-01-09T03:25:55.059Z,51.20
2023-01-09T03:47:40.994Z,46.70
2023-01-09T04:09:26.801Z,40.00
2023-01-09T04:31:12.643Z,41.00
2023-01-09T04:52:58.339Z,48.10
2023-01-09T05:22:14.579Z,46.30
2023-01-09T05:44:00.260Z,44.60
2023-01-09T06:20:26.593Z,41.40
2023-01-09T06:42:12.383Z,40.20
2023-01-09T07:03:58.063Z,42.80
2023-01-09T07:25:44.571Z,38.20
2023-01-09T07:47:30.273Z,41.50
2023-01-09T08:09:16.771Z,36.80
2023-01-09T08:31:02.480Z,38.40
2023-01-09T08:52:48.187Z,39.60
2023-01-09T09:14:51.771Z,36.20
2023-01-09T09:36:37.718Z,33.20
2023-01-09T10:20:49.164Z,31.10
2023-01-09T10:42:40.512Z,33.10
2023-01-09T11:04:30.964Z,30.20
2023-01-09T11:26:27.291Z,38.80
2023-01-09T11:48:29.810Z,29.90
2023-01-09T12:10:35.826Z,27.20
2023-01-09T12:32:35.837Z,13.90
2023-01-09T12:54:30.448Z,15.40
2023-01-09T13:16:19.122Z,14.80
2023-01-09T13:38:05.144Z,12.60
2023-01-09T13:59:52.056Z,14.00
2023-01-09T14:21:49.074Z,15.30
2023-01-09T14:43:49.415Z,18.90
2023-01-09T15:05:35.381Z,14.40
2023-01-09T15:27:22.144Z,12.80
2023-01-09T15:49:10.827Z,13.20
2023-01-09T16:20:28.483Z,13.70
2023-01-09T16:42:31.687Z,14.60
2023-01-09T17:04:20.170Z,20.20
2023-01-09T17:26:23.871Z,20.70
2023-01-09T17:48:14.620Z,18.00
2023-01-09T18:10:00.275Z,19.20
2023-01-09T18:31:46.169Z,20.80
2023-01-09T18:53:31.915Z,17.40
2023-01-09T19:15:17.575Z,21.60
2023-01-09T19:37:04.420Z,28.40
2023-01-09T19:58:53.056Z,22.50
2023-01-09T20:42:25.063Z,36.40
2023-01-09T21:04:11.232Z,40.90
2023-01-09T21:25:57.259Z,38.10
2023-01-09T21:47:42.973Z,40.40
2023-01-09T22:20:40.161Z,47.30
2023-01-09T22:42:23.031Z,36.80
2023-01-09T23:04:06.213Z,40.20
2023-01-09T23:25:50.003Z,27.50
2023-01-09T23:47:32.966Z,25.60
